createdAt,value
2022-10-14T00:00:10.319Z,12.40
2022-10-14T00:02:44.105Z,13.75
2022-10-14T00:05:16.605Z,13.55
2022-10-14T00:07:49.225Z,12.68
2022-10-14T00:10:22.188Z,13.43
2022-10-14T00:12:55.003Z,13.80
2022-10-14T00:15:27.742Z,13.60
2022-10-14T00:18:00.316Z,13.27
2022-10-14T00:20:32.720Z,13.43
2022-10-14T00:23:05.161Z,13.02
2022-10-14T00:25:39.134Z,13.65
2022-10-14T00:28:11.697Z,12.70
2022-10-14T00:30:54.721Z,12.75
2022-10-14T00:33:28.175Z,13.43
2022-10-14T00:36:05.873Z,12.13
2022-10-14T00:38:40.571Z,13.32
2022-10-14T00:41:16.975Z,12.90
2022-10-14T00:43:58.082Z,13.18
2022-10-14T00:46:35.310Z,12.88
2022-10-14T00:49:19.213Z,13.00
2022-10-14T00:51:57.351Z,13.23
2022-10-14T00:54:35.402Z,13.25
2022-10-14T00:57:09.480Z,13.60
2022-10-14T00:59:42.712Z,13.00
2022-10-14T01:02:15.106Z,12.55
2022-10-14T01:04:47.752Z,12.45
2022-10-14T01:07:37.258Z,12.13
2022-10-14T01:10:31.390Z,12.68
2022-10-14T01:13:32.180Z,12.30
2022-10-14T01:16:16.324Z,12.40
2022-10-14T01:19:01.097Z,12.77
2022-10-14T01:21:38.689Z,12.40
2022-10-14T01:24:26.589Z,12.70
2022-10-14T01:27:17.797Z,12.50
2022-10-14T01:30:08.632Z,12.95
2022-10-14T01:33:04.036Z,13.35
2022-10-14T01:35:40.838Z,13.77
2022-10-14T01:38:26.266Z,12.20
2022-10-14T01:41:06.637Z,12.45
2022-10-14T01:43:41.625Z,12.82
2022-10-14T01:46:16.613Z,12.85
2022-10-14T01:48:55.048Z,12.73
2022-10-14T01:51:40.725Z,12.90
2022-10-14T01:54:19.439Z,12.15
2022-10-14T01:56:56.002Z,12.50
2022-10-14T01:59:30.759Z,11.80
2022-10-14T02:02:03.421Z,12.35
2022-10-14T02:04:36.227Z,12.68
2022-10-14T02:07:13.151Z,11.68
2022-10-14T02:10:08.964Z,12.23
2022-10-14T02:13:00.419Z,11.90
2022-10-14T02:16:04.969Z,13.02
2022-10-14T02:18:52.226Z,13.23
2022-10-14T02:21:42.539Z,13.23
2022-10-14T02:24:24.876Z,13.32
2022-10-14T02:27:01.205Z,12.50
2022-10-14T02:29:35.428Z,14.48
2022-10-14T02:32:09.674Z,13.40
2022-10-14T02:34:47.975Z,13.38
2022-10-14T02:37:22.947Z,13.55
2022-10-14T02:40:08.335Z,12.55
2022-10-14T02:42:41.243Z,12.93
2022-10-14T02:45:16.282Z,12.43
2022-10-14T02:47:51.140Z,13.00
2022-10-14T02:50:23.581Z,12.82
2022-10-14T02:52:57.374Z,13.07
2022-10-14T02:55:29.895Z,12.57
2022-10-14T02:58:02.468Z,12.40
2022-10-14T03:00:35.204Z,12.48
2022-10-14T03:03:08.127Z,13.50
2022-10-14T03:05:40.771Z,13.35
2022-10-14T03:08:18.229Z,13.25
2022-10-14T03:10:51.884Z,14.73
2022-10-14T03:13:24.827Z,13.35
2022-10-14T03:15:58.709Z,14.10
2022-10-14T03:18:32.423Z,13.90
2022-10-14T03:21:14.784Z,13.10
2022-10-14T03:23:49.204Z,13.83
2022-10-14T03:26:24.278Z,13.68
2022-10-14T03:31:40.728Z,12.68
2022-10-14T03:34:28.359Z,12.63
2022-10-14T03:37:10.008Z,12.30
2022-10-14T03:39:50.521Z,12.88
2022-10-14T03:42:24.416Z,13.70
2022-10-14T03:44:57.659Z,14.07
2022-10-14T03:47:33.713Z,13.50
2022-10-14T03:50:07.199Z,14.00
2022-10-14T03:52:47.123Z,13.18
2022-10-14T03:55:27.200Z,12.48
2022-10-14T03:58:01.380Z,12.88
2022-10-14T04:00:36.235Z,12.75
2022-10-14T04:03:23.882Z,13.00
2022-10-14T04:05:56.734Z,13.45
2022-10-14T04:08:31.997Z,13.07
2022-10-14T04:11:13.156Z,13.00
2022-10-14T04:13:46.557Z,12.65
2022-10-14T04:16:20.591Z,12.57
2022-10-14T04:19:05.991Z,12.90
2022-10-14T04:21:38.762Z,12.25
2022-10-14T04:24:12.984Z,12.55
2022-10-14T04:26:53.261Z,12.43
2022-10-14T04:29:36.004Z,11.88
2022-10-14T04:32:15.233Z,12.43
2022-10-14T04:34:48.224Z,11.30
2022-10-14T04:37:24.869Z,12.15
2022-10-14T04:40:06.868Z,12.85
2022-10-14T04:42:46.984Z,12.02
2022-10-14T04:45:27.578Z,12.40
2022-10-14T04:48:07.219Z,11.20
2022-10-14T04:50:45.840Z,12.15
2022-10-14T04:53:34.119Z,12.10
2022-10-14T04:56:15.443Z,12.00
2022-10-14T04:59:00.493Z,11.82
2022-10-14T05:01:53.289Z,11.70
2022-10-14T05:04:26.979Z,11.57
2022-10-14T05:09:35.986Z,11.40
2022-10-14T05:12:12.526Z,11.60
2022-10-14T05:14:53.238Z,11.35
2022-10-14T05:17:33.931Z,12.35
2022-10-14T05:20:08.641Z,11.93
2022-10-14T05:22:46.115Z,12.50
2022-10-14T05:27:51.239Z,11.43
2022-10-14T05:30:24.046Z,12.18
2022-10-14T05:32:58.958Z,12.32
2022-10-14T05:35:57.040Z,12.57
2022-10-14T05:38:26.755Z,12.25
2022-10-14T05:40:59.580Z,12.43
2022-10-14T05:43:33.003Z,13.00
2022-10-14T05:46:10.418Z,12.15
2022-10-14T05:48:46.945Z,12.13
2022-10-14T05:51:23.034Z,13.60
2022-10-14T05:54:00.660Z,13.52
2022-10-14T05:56:33.532Z,14.20
2022-10-14T05:59:06.159Z,14.25
2022-10-14T06:01:40.170Z,13.55
2022-10-14T06:04:18.929Z,13.73
2022-10-14T06:06:51.596Z,14.00
2022-10-14T06:09:24.336Z,14.90
2022-10-14T06:11:58.666Z,12.80
2022-10-14T06:14:31.404Z,13.68
2022-10-14T06:17:06.490Z,13.98
2022-10-14T06:19:39.190Z,14.00
2022-10-14T06:22:11.877Z,13.35
2022-10-14T06:24:44.576Z,13.65
2022-10-14T06:27:17.331Z,13.13
2022-10-14T06:29:50.059Z,13.27
2022-10-14T06:32:22.920Z,13.38
2022-10-14T06:34:55.907Z,13.50
2022-10-14T06:37:28.546Z,12.80
2022-10-14T06:40:01.371Z,13.88
2022-10-14T06:42:36.444Z,13.70
2022-10-14T06:45:09.982Z,13.02
2022-10-14T06:47:42.609Z,14.35
2022-10-14T06:50:15.627Z,14.55
2022-10-14T06:52:49.371Z,13.95
2022-10-14T06:55:22.025Z,12.10
2022-10-14T06:57:55.735Z,11.25
2022-10-14T07:00:29.205Z,10.20
2022-10-14T07:03:02.068Z,10.38
2022-10-14T07:05:35.590Z,10.18
2022-10-14T07:08:10.226Z,11.43
2022-10-14T07:10:48.741Z,11.55
2022-10-14T07:13:21.897Z,12.88
2022-10-14T07:15:55.173Z,12.05
2022-10-14T07:18:28.208Z,10.77
2022-10-14T07:21:04.250Z,10.40
2022-10-14T07:23:37.011Z,10.15
2022-10-14T07:26:09.566Z,8.63
2022-10-14T07:28:42.489Z,9.38
2022-10-14T07:31:15.087Z,9.02
2022-10-14T07:33:47.704Z,9.30
2022-10-14T07:36:22.521Z,8.55
2022-10-14T07:38:55.795Z,8.45
2022-10-14T07:41:28.716Z,8.77
2022-10-14T07:44:06.473Z,9.45
2022-10-14T07:46:43.023Z,9.02
2022-10-14T07:49:18.919Z,9.05
2022-10-14T07:51:51.827Z,9.52
2022-10-14T07:54:30.119Z,9.50
2022-10-14T07:57:02.736Z,8.70
2022-10-14T07:59:35.370Z,9.50
2022-10-14T08:02:08.212Z,9.77
2022-10-14T08:04:41.124Z,10.60
2022-10-14T08:07:15.298Z,9.82
2022-10-14T08:09:48.107Z,9.57
2022-10-14T08:12:21.578Z,10.30
2022-10-14T08:14:57.602Z,10.25
2022-10-14T08:17:30.181Z,11.20
2022-10-14T08:20:03.072Z,11.85
2022-10-14T08:22:35.697Z,13.40
2022-10-14T08:25:08.834Z,13.20
2022-10-14T08:27:41.298Z,13.10
2022-10-14T08:30:13.872Z,13.15
2022-10-14T08:32:46.439Z,13.75
2022-10-14T08:35:19.489Z,16.98
2022-10-14T08:38:00.830Z,17.30
2022-10-14T08:40:54.822Z,21.38
2022-10-14T08:43:33.837Z,21.08
2022-10-14T08:46:16.469Z,21.90
2022-10-14T08:48:51.848Z,23.60
2022-10-14T08:54:06.864Z,25.92
2022-10-14T08:56:39.774Z,26.50
2022-10-14T08:59:16.128Z,26.83
2022-10-14T09:01:54.174Z,25.02
2022-10-14T09:04:27.005Z,29.58
2022-10-14T09:07:00.406Z,28.05
2022-10-14T09:09:40.862Z,27.67
2022-10-14T09:12:18.374Z,28.05
2022-10-14T09:15:02.720Z,28.40
2022-10-14T09:17:45.337Z,30.50
2022-10-14T09:20:23.790Z,28.75
2022-10-14T09:23:18.742Z,29.88
2022-10-14T09:25:55.947Z,27.92
2022-10-14T09:28:39.168Z,28.25
2022-10-14T09:31:13.451Z,26.55
2022-10-14T09:33:46.553Z,27.55
2022-10-14T09:36:21.053Z,25.58
2022-10-14T09:38:55.768Z,24.83
2022-10-14T09:41:31.301Z,24.85
2022-10-14T09:46:59.903Z,26.95
2022-10-14T09:49:39.488Z,27.60
2022-10-14T09:52:34.699Z,27.00
2022-10-14T09:55:20.639Z,27.42
2022-10-14T09:58:04.361Z,29.45
2022-10-14T10:00:38.122Z,30.48
2022-10-14T10:03:25.789Z,30.63
2022-10-14T10:06:04.870Z,30.15
2022-10-14T10:08:42.429Z,30.38
2022-10-14T10:11:15.376Z,30.35
2022-10-14T10:13:48.518Z,29.63
2022-10-14T10:16:26.408Z,30.92
2022-10-14T10:19:24.355Z,31.42
2022-10-14T10:25:10.083Z,30.67
2022-10-14T10:27:46.738Z,28.90
2022-10-14T10:30:35.067Z,28.92
2022-10-14T10:33:27.523Z,29.60
2022-10-14T10:36:03.987Z,27.38
2022-10-14T10:38:52.599Z,30.05
2022-10-14T10:41:48.595Z,29.02
2022-10-14T10:44:44.968Z,27.70
2022-10-14T10:50:17.725Z,29.38
2022-10-14T10:52:54.493Z,30.38
2022-10-14T10:55:28.267Z,30.88
2022-10-14T10:58:20.441Z,29.92
2022-10-14T11:01:02.183Z,28.80
2022-10-14T11:03:57.587Z,28.83
2022-10-14T11:06:51.682Z,28.98
2022-10-14T11:10:15.027Z,26.85
2022-10-14T11:13:00.344Z,26.02
2022-10-14T11:15:42.895Z,24.95
2022-10-14T11:18:31.115Z,25.00
2022-10-14T11:21:13.085Z,24.00
2022-10-14T11:24:13.961Z,22.50
2022-10-14T11:27:02.204Z,21.23
2022-10-14T11:30:03.718Z,23.60
2022-10-14T11:32:40.177Z,21.52
2022-10-14T11:35:25.500Z,23.88
2022-10-14T11:38:05.115Z,23.90
2022-10-14T11:40:46.123Z,23.70
2022-10-14T11:43:24.363Z,24.45
2022-10-14T11:46:03.556Z,24.45
2022-10-14T11:48:43.306Z,23.63
2022-10-14T11:51:19.439Z,23.00
2022-10-14T11:54:08.244Z,21.88
2022-10-14T11:57:07.329Z,22.05
2022-10-14T11:59:52.317Z,22.85
2022-10-14T12:02:42.795Z,22.03
2022-10-14T12:05:16.162Z,19.33
2022-10-14T12:08:20.848Z,20.02
2022-10-14T12:11:05.279Z,21.40
2022-10-14T12:13:43.841Z,20.45
2022-10-14T12:16:20.259Z,19.35
2022-10-14T12:18:58.880Z,17.15
2022-10-14T12:21:50.923Z,16.88
2022-10-14T12:24:30.898Z,18.63
2022-10-14T12:27:06.964Z,20.50
2022-10-14T12:29:45.578Z,22.90
2022-10-14T12:32:20.263Z,22.38
2022-10-14T12:34:57.738Z,21.08
2022-10-14T12:37:38.433Z,18.60
2022-10-14T12:40:15.275Z,17.63
2022-10-14T12:42:48.584Z,22.02
2022-10-14T12:45:24.122Z,17.50
2022-10-14T12:50:46.979Z,17.23
2022-10-14T12:53:22.011Z,21.48
2022-10-14T12:56:01.183Z,21.42
2022-10-14T12:58:42.559Z,23.45
2022-10-14T13:01:18.873Z,22.08
2022-10-14T13:04:00.323Z,22.20
2022-10-14T13:06:35.676Z,20.13
2022-10-14T13:11:56.165Z,21.27
2022-10-14T13:14:49.945Z,19.70
2022-10-14T13:17:39.290Z,22.00
2022-10-14T13:20:35.232Z,20.60
2022-10-14T13:23:31.312Z,22.58
2022-10-14T13:26:24.299Z,21.48
2022-10-14T13:29:17.970Z,19.85
2022-10-14T13:32:06.672Z,21.52
2022-10-14T13:34:44.475Z,21.35
2022-10-14T13:37:35.955Z,21.65
2022-10-14T13:40:26.677Z,20.80
2022-10-14T13:43:08.952Z,22.90
2022-10-14T13:45:46.481Z,22.13
2022-10-14T13:48:31.152Z,21.60
2022-10-14T13:51:24.440Z,23.33
2022-10-14T13:54:18.308Z,21.58
2022-10-14T14:00:41.543Z,23.45
2022-10-14T14:05:54.425Z,22.35
2022-10-14T14:08:40.507Z,21.63
2022-10-14T14:11:22.155Z,22.83
2022-10-14T14:14:18.030Z,24.65
2022-10-14T14:17:12.538Z,24.00
2022-10-14T14:20:13.061Z,25.00
2022-10-14T14:22:51.193Z,23.13
2022-10-14T14:25:35.875Z,23.55
2022-10-14T14:28:15.822Z,23.42
2022-10-14T14:30:55.175Z,22.83
2022-10-14T14:33:34.692Z,23.10
2022-10-14T14:36:22.252Z,23.13
2022-10-14T14:39:02.974Z,22.95
2022-10-14T14:41:36.576Z,24.20
2022-10-14T14:44:25.027Z,22.05
2022-10-14T14:47:03.351Z,22.83
2022-10-14T14:49:38.965Z,22.60
2022-10-14T14:52:14.448Z,23.15
2022-10-14T14:54:48.318Z,22.30
2022-10-14T14:57:23.725Z,21.08
2022-10-14T15:00:02.788Z,23.30
2022-10-14T15:02:36.009Z,23.10
2022-10-14T15:05:10.940Z,24.17
2022-10-14T15:07:44.416Z,23.15
2022-10-14T15:10:24.461Z,22.98
2022-10-14T15:12:59.404Z,23.10
2022-10-14T15:15:35.050Z,23.92
2022-10-14T15:18:17.737Z,23.15
2022-10-14T15:20:51.334Z,25.05
2022-10-14T15:23:46.262Z,23.98
2022-10-14T15:26:35.785Z,24.17
2022-10-14T15:29:09.099Z,24.10
2022-10-14T15:31:45.068Z,22.23
2022-10-14T15:34:21.924Z,23.40
2022-10-14T15:36:55.044Z,22.73
2022-10-14T15:39:28.256Z,23.08
2022-10-14T15:42:01.891Z,23.30
2022-10-14T15:44:37.995Z,21.55
2022-10-14T15:47:20.532Z,20.98
2022-10-14T15:49:53.160Z,20.95
2022-10-14T15:52:27.058Z,20.42
2022-10-14T15:55:00.437Z,21.23
2022-10-14T15:57:33.277Z,20.58
2022-10-14T16:00:08.539Z,20.63
2022-10-14T16:02:44.812Z,17.77
2022-10-14T16:05:20.075Z,18.55
2022-10-14T16:07:53.341Z,17.88
2022-10-14T16:10:29.342Z,18.23
2022-10-14T16:13:05.039Z,15.65
2022-10-14T16:15:44.314Z,17.35
2022-10-14T16:18:18.452Z,16.45
2022-10-14T16:20:53.087Z,16.75
2022-10-14T16:23:29.630Z,15.87
2022-10-14T16:26:06.863Z,15.85
2022-10-14T16:28:39.923Z,14.88
2022-10-14T16:31:15.348Z,15.02
2022-10-14T16:36:29.713Z,14.75
2022-10-14T16:41:36.417Z,15.48
2022-10-14T16:44:25.086Z,16.08
2022-10-14T16:47:14.932Z,16.40
2022-10-14T16:49:51.339Z,16.77
2022-10-14T16:52:24.314Z,16.25
2022-10-14T16:54:59.080Z,16.35
2022-10-14T16:57:31.906Z,16.65
2022-10-14T17:00:05.529Z,17.25
2022-10-14T17:02:38.532Z,18.02
2022-10-14T17:05:11.465Z,17.55
2022-10-14T17:07:44.279Z,18.55
2022-10-14T17:10:19.523Z,18.92
2022-10-14T17:12:54.065Z,18.83
2022-10-14T17:15:26.647Z,18.97
2022-10-14T17:17:59.283Z,20.67
2022-10-14T17:20:32.199Z,18.27
2022-10-14T17:23:10.229Z,19.83
2022-10-14T17:25:46.843Z,19.00
2022-10-14T17:28:20.781Z,20.50
2022-10-14T17:30:53.549Z,18.90
2022-10-14T17:33:26.427Z,19.77
2022-10-14T17:36:01.073Z,19.27
2022-10-14T17:38:35.934Z,20.77
2022-10-14T17:41:10.562Z,21.08
2022-10-14T17:43:43.789Z,21.40
2022-10-14T17:46:19.368Z,22.05
2022-10-14T17:48:54.891Z,23.15
2022-10-14T17:51:28.755Z,22.30
2022-10-14T17:54:04.415Z,21.65
2022-10-14T17:56:38.603Z,21.40
2022-10-14T17:59:14.636Z,19.83
2022-10-14T18:02:04.127Z,21.15
2022-10-14T18:04:38.845Z,21.98
2022-10-14T18:07:12.251Z,22.35
2022-10-14T18:09:45.008Z,22.67
2022-10-14T18:12:17.817Z,22.58
2022-10-14T18:14:50.428Z,22.02
2022-10-14T18:17:23.401Z,22.55
2022-10-14T18:19:58.263Z,22.95
2022-10-14T18:22:31.542Z,22.42
2022-10-14T18:25:05.729Z,23.05
2022-10-14T18:27:38.414Z,22.77
2022-10-14T18:30:12.192Z,22.10
2022-10-14T18:32:44.663Z,23.30
2022-10-14T18:35:17.482Z,23.15
2022-10-14T18:37:50.216Z,22.60
2022-10-14T18:40:22.991Z,22.83
2022-10-14T18:42:58.568Z,23.08
2022-10-14T18:45:35.194Z,23.50
2022-10-14T18:48:07.808Z,24.42
2022-10-14T18:50:40.478Z,25.50
2022-10-14T18:53:13.122Z,23.08
2022-10-14T18:55:45.755Z,24.33
2022-10-14T18:58:18.831Z,24.02
2022-10-14T19:00:52.840Z,25.10
2022-10-14T19:03:25.605Z,25.10
2022-10-14T19:05:59.865Z,24.95
2022-10-14T19:08:32.365Z,24.88
2022-10-14T19:11:08.840Z,24.42
2022-10-14T19:13:41.873Z,24.48
2022-10-14T19:16:18.596Z,25.23
2022-10-14T19:18:54.554Z,24.08
2022-10-14T19:21:32.485Z,25.45
2022-10-14T19:24:07.307Z,23.83
2022-10-14T19:26:43.837Z,25.02
2022-10-14T19:29:20.964Z,24.08
2022-10-14T19:31:55.375Z,26.15
2022-10-14T19:34:28.055Z,25.90
2022-10-14T19:37:00.636Z,27.15
2022-10-14T19:39:33.069Z,28.15
2022-10-14T19:42:05.935Z,31.15
2022-10-14T19:44:38.584Z,29.20
2022-10-14T19:47:11.362Z,33.58
2022-10-14T19:49:45.299Z,33.88
2022-10-14T19:52:18.789Z,43.67
2022-10-14T19:54:51.999Z,39.72
2022-10-14T19:57:24.910Z,51.95
2022-10-14T19:59:57.682Z,35.47
2022-10-14T20:02:30.368Z,30.67
2022-10-14T20:05:03.186Z,27.50
2022-10-14T20:07:35.775Z,26.05
2022-10-14T20:10:09.147Z,27.17
2022-10-14T20:12:43.643Z,27.20
2022-10-14T20:15:17.542Z,30.52
2022-10-14T20:17:50.053Z,31.83
2022-10-14T20:20:22.747Z,34.97
2022-10-14T20:22:56.401Z,42.08
2022-10-14T20:25:28.965Z,36.10
2022-10-14T20:28:01.760Z,31.90
2022-10-14T20:30:34.378Z,34.40
2022-10-14T20:33:07.864Z,33.35
2022-10-14T20:35:40.588Z,29.33
2022-10-14T20:38:13.364Z,27.25
2022-10-14T20:40:45.992Z,26.13
2022-10-14T20:43:18.585Z,27.88
2022-10-14T20:45:51.220Z,26.52
2022-10-14T20:48:23.955Z,26.42
2022-10-14T20:50:56.690Z,27.02
2022-10-14T20:53:29.327Z,28.65
2022-10-14T20:56:07.642Z,28.10
2022-10-14T20:58:40.940Z,27.00
2022-10-14T21:01:16.715Z,27.50
2022-10-14T21:03:50.254Z,27.02
2022-10-14T21:06:25.254Z,27.90
2022-10-14T21:08:59.189Z,29.00
2022-10-14T21:11:31.672Z,28.13
2022-10-14T21:14:04.405Z,27.98
2022-10-14T21:16:37.560Z,29.13
2022-10-14T21:19:11.180Z,28.52
2022-10-14T21:21:45.757Z,28.83
2022-10-14T21:24:19.920Z,29.05
2022-10-14T21:26:53.716Z,28.05
2022-10-14T21:29:27.638Z,28.17
2022-10-14T21:32:00.154Z,27.10
2022-10-14T21:34:32.866Z,28.70
2022-10-14T21:37:05.549Z,28.95
2022-10-14T21:39:38.961Z,30.05
2022-10-14T21:42:11.856Z,28.63
2022-10-14T21:44:44.536Z,27.83
2022-10-14T21:47:17.081Z,28.92
2022-10-14T21:49:50.981Z,28.42
2022-10-14T21:52:23.991Z,28.98
2022-10-14T21:54:56.851Z,29.05
2022-10-14T21:57:31.346Z,29.42
2022-10-14T22:00:09.120Z,29.23
2022-10-14T22:02:41.937Z,31.10
2022-10-14T22:05:14.624Z,30.75
2022-10-14T22:07:50.166Z,29.33
2022-10-14T22:10:38.153Z,29.13
2022-10-14T22:13:11.107Z,29.52
2022-10-14T22:15:43.921Z,30.23
2022-10-14T22:18:16.614Z,30.30
2022-10-14T22:20:50.570Z,30.20
2022-10-14T22:23:23.109Z,30.02
2022-10-14T22:25:59.406Z,29.42
2022-10-14T22:28:32.798Z,30.00
2022-10-14T22:31:06.748Z,30.00
2022-10-14T22:33:40.482Z,29.48
2022-10-14T22:36:22.765Z,30.35
2022-10-14T22:38:58.295Z,29.00
2022-10-14T22:41:35.103Z,31.05
2022-10-14T22:44:09.397Z,29.77
2022-10-14T22:46:41.998Z,29.45
2022-10-14T22:49:14.599Z,28.38
2022-10-14T22:51:47.080Z,29.30
2022-10-14T22:54:19.621Z,28.17
2022-10-14T22:56:52.108Z,29.50
2022-10-14T22:59:24.717Z,28.75
2022-10-14T23:01:57.574Z,30.42
2022-10-14T23:04:30.759Z,29.52
2022-10-14T23:07:06.965Z,29.27
2022-10-14T23:09:40.320Z,29.63
2022-10-14T23:12:12.955Z,27.75
2022-10-14T23:14:45.796Z,28.13
2022-10-14T23:17:18.636Z,28.13
2022-10-14T23:19:51.252Z,28.67
2022-10-14T23:22:24.153Z,30.42
2022-10-14T23:24:57.283Z,28.23
2022-10-14T23:27:32.836Z,28.88
2022-10-14T23:30:09.140Z,26.85
2022-10-14T23:32:41.773Z,29.23
2022-10-14T23:35:14.659Z,31.40
2022-10-14T23:37:47.815Z,31.23
2022-10-14T23:40:20.442Z,29.25
2022-10-14T23:42:53.109Z,29.38
2022-10-14T23:45:25.815Z,29.45
2022-10-14T23:47:58.565Z,26.77
2022-10-14T23:50:31.224Z,25.35
2022-10-14T23:53:03.776Z,25.77
2022-10-14T23:55:36.435Z,26.38
2022-10-14T23:58:09.436Z,24.98
